Stradbroke Venture — 3823QD — position and weather

sailwx.info

Track history (hours):
 
Tides and Currents Weather Stations Pressure Air Temp Water Temp Dewpoint Dewpoint Depression Visibility Wind Speed Wind Dir Waves Ship Positions

Stradbroke Venture

Last reported at 2017-Dec-15 08:25 UTC. Time now 2017-Dec-15 11:55 UTC.
Position S 27°37' E 153°19'.

Length 54 m; draft 1.4 m.

Type: Other ship. MMSI: 503690000.

Date/timePositionNaut miles runAvg speedWind from/ knotsBaromVisibWave heightAir tempDewpointWater temp
2017-Dec-15 08:25S 27°37' E 153°19'2 3.7
2017-Dec-15 08:00S 27°38' E 153°20'2 3.1
2017-Dec-15 07:30S 27°38' E 153°22'1 1.9
2017-Dec-15 07:00S 27°38' E 153°23'2 4.6
2017-Dec-15 06:30S 27°38' E 153°20'2 3.3
2017-Dec-15 06:00S 27°37' E 153°19'2 4.4
2017-Dec-15 05:30S 27°38' E 153°21'3 5.4
2017-Dec-15 05:00S 27°38' E 153°24'0 0.1
2017-Dec-15 04:30S 27°38' E 153°24'3 5.0
2017-Dec-15 04:00S 27°39' E 153°21'2 1.4
2017-Dec-15 02:30S 27°38' E 153°23'4 2.8
2017-Dec-15 01:00S 27°37' E 153°19'2 4.9
2017-Dec-15 00:30S 27°38' E 153°21'2 0.2
2017-Dec-14 08:57S 27°37' E 153°19'0 0.0
2017-Dec-14 08:31S 27°37' E 153°19'1 3.0
2017-Dec-14 08:01S 27°38' E 153°20'2 3.2
2017-Dec-14 07:31S 27°38' E 153°22'2 3.2
2017-Dec-14 07:01S 27°38' E 153°23'2 4.8
2017-Dec-14 06:31S 27°39' E 153°21'2 4.9
2017-Dec-14 06:00S 27°37' E 153°19'2 4.6
2017-Dec-14 05:30S 27°38' E 153°21'3 5.2
2017-Dec-14 05:01S 27°38' E 153°24'0 0.4
2017-Dec-14 04:31S 27°38' E 153°23'3 5.1
2017-Dec-14 04:01S 27°38' E 153°20'2 4.3
2017-Dec-14 03:30S 27°37' E 153°19'3 5.1
2017-Dec-14 03:01S 27°39' E 153°21'2 4.9
2017-Dec-14 02:30S 27°38' E 153°24'0 0.5
2017-Dec-14 02:01S 27°38' E 153°23'3 5.1
2017-Dec-14 01:31S 27°38' E 153°20'2 4.2
2017-Dec-14 01:01S 27°37' E 153°19'2 4.0
2017-Dec-14 00:30S 27°38' E 153°20'2 5.0
2017-Dec-14 00:01S 27°38' E 153°23'0 0.8
2017-Dec-13 23:31S 27°39' E 153°23'2 4.1
2017-Dec-13 23:01S 27°39' E 153°21'3 5.5
2017-Dec-13 22:31S 27°37' E 153°19'2 4.6
2017-Dec-13 22:01S 27°38' E 153°21'2 4.5
2017-Dec-13 21:31S 27°38' E 153°23'0 0.8
2017-Dec-13 21:01S 27°38' E 153°23'2 4.7
2017-Dec-13 20:31S 27°39' E 153°21'3 5.3
2017-Dec-13 20:00S 27°37' E 153°19'0 0.0
2017-Dec-13 08:24S 27°37' E 153°19'1 3.8
2017-Dec-13 08:00S 27°38' E 153°20'3 5.8
2017-Dec-13 07:30S 27°38' E 153°23'0 0.7
2017-Dec-13 07:00S 27°38' E 153°23'2 4.2
2017-Dec-13 06:30S 27°39' E 153°21'3 5.5
2017-Dec-13 06:00S 27°37' E 153°19'2 4.8
2017-Dec-13 05:30S 27°38' E 153°21'3 5.2
2017-Dec-13 05:00S 27°38' E 153°24'0 0.6
2017-Dec-13 04:30S 27°38' E 153°23'2 4.8
2017-Dec-13 04:00S 27°38' E 153°21'2 4.4
2017-Dec-13 03:31S 27°37' E 153°19'3 5.6
2017-Dec-13 03:00S 27°39' E 153°21'2 4.0
2017-Dec-13 02:30S 27°38' E 153°23'1 1.7
2017-Dec-13 02:00S 27°38' E 153°23'2 4.3
2017-Dec-13 01:30S 27°38' E 153°20'2 3.4
2017-Dec-13 01:00S 27°37' E 153°19'3 5.6
2017-Dec-13 00:30S 27°39' E 153°21'2 3.5
2017-Dec-13 00:00S 27°39' E 153°23'0 0.7
2017-Dec-12 23:30S 27°38' E 153°24'2 4.8
2017-Dec-12 23:00S 27°39' E 153°21'3 5.3
2017-Dec-12 22:30S 27°37' E 153°19'2 4.1
2017-Dec-12 22:00S 27°38' E 153°20'2 4.7
2017-Dec-12 21:30S 27°38' E 153°23'0 0.8
2017-Dec-12 21:00S 27°38' E 153°23'2 4.0
2017-Dec-12 20:30S 27°39' E 153°21'3 5.6
2017-Dec-12 20:01S 27°37' E 153°19'0 0.0
2017-Dec-12 19:30S 27°37' E 153°19'0 0.0
2017-Dec-12 08:36S 27°37' E 153°19'0 0.0
2017-Dec-12 08:30S 27°37' E 153°19'3 5.1
2017-Dec-12 08:00S 27°39' E 153°21'2 4.3
2017-Dec-12 07:30S 27°38' E 153°23'0 0.9
2017-Dec-12 07:00S 27°38' E 153°24'3 5.1
2017-Dec-12 06:30S 27°39' E 153°21'3 5.2
2017-Dec-12 06:00S 27°37' E 153°19'3 5.6
2017-Dec-12 05:30S 27°38' E 153°21'2 3.6
2017-Dec-12 05:00S 27°38' E 153°23'0 0.0
2017-Dec-12 04:30S 27°38' E 153°23'2 4.5
2017-Dec-12 04:00S 27°39' E 153°21'2 4.9
2017-Dec-12 03:30S 27°37' E 153°19'3 5.3
2017-Dec-12 03:00S 27°39' E 153°21'2 4.7
2017-Dec-12 02:30S 27°38' E 153°23'0 0.4
2017-Dec-12 02:00S 27°38' E 153°23'2 4.5
2017-Dec-12 01:30S 27°39' E 153°21'3 5.5
2017-Dec-12 01:00S 27°37' E 153°19'2 4.6
2017-Dec-12 00:30S 27°38' E 153°21'2 4.4
2017-Dec-12 00:00S 27°38' E 153°23'0 0.8
2017-Dec-11 23:30S 27°38' E 153°23'2 4.3
2017-Dec-11 23:00S 27°39' E 153°21'3 5.4
2017-Dec-11 22:30S 27°37' E 153°19'2 4.7
2017-Dec-11 22:00S 27°38' E 153°21'2 4.8
2017-Dec-11 21:30S 27°38' E 153°23'0 0.5
2017-Dec-11 21:00S 27°38' E 153°24'3 5.1
2017-Dec-11 20:30S 27°39' E 153°21'2 4.9
2017-Dec-11 20:00S 27°37' E 153°19'0 0.0
2017-Dec-11 19:30S 27°37' E 153°19'0 0.0
2017-Dec-11 08:26S 27°37' E 153°19'1 2.3
2017-Dec-11 08:00S 27°37' E 153°19'3 6.5
2017-Dec-11 07:30S 27°38' E 153°23'0 0.7
2017-Dec-11 07:00S 27°38' E 153°23'3 5.0
2017-Dec-11 06:30S 27°38' E 153°21'2 4.8
2017-Dec-11 06:00S 27°37' E 153°19'2 4.6
2017-Dec-11 05:30S 27°38' E 153°21'2 4.4
2017-Dec-11 05:00S 27°38' E 153°23'0 0.8
2017-Dec-11 04:30S 27°38' E 153°23'2 4.0
2017-Dec-11 04:00S 27°39' E 153°21'3 5.5
2017-Dec-11 03:30S 27°37' E 153°19'2 3.9
2017-Dec-11 03:00S 27°38' E 153°20'3 5.1
2017-Dec-11 02:30S 27°38' E 153°23'0 0.8
2017-Dec-11 02:00S 27°38' E 153°23'2 4.5
2017-Dec-11 01:30S 27°38' E 153°20'2 3.7
2017-Dec-11 01:00S 27°37' E 153°19'3 5.8
2017-Dec-11 00:30S 27°38' E 153°22'1 2.7
2017-Dec-11 00:00S 27°39' E 153°23'1 1.2
2017-Dec-10 23:30S 27°38' E 153°23'2 4.5
2017-Dec-10 23:00S 27°38' E 153°20'2 4.0
2017-Dec-10 22:30S 27°37' E 153°19'3 5.6
2017-Dec-10 22:00S 27°39' E 153°21'2 4.2
2017-Dec-10 21:30S 27°38' E 153°23'1 1.2
2017-Dec-10 21:00S 27°39' E 153°23'2 3.3
2017-Dec-10 20:30S 27°39' E 153°21'3 5.6
2017-Dec-10 20:00S 27°37' E 153°19'0 0.0
2017-Dec-10 08:03S 27°37' E 153°19'0 0.0
2017-Dec-10 08:00S 27°37' E 153°19'2 3.5
2017-Dec-10 07:30S 27°38' E 153°20'2 3.9
2017-Dec-10 07:00S 27°38' E 153°22'1 1.9
2017-Dec-10 06:30S 27°38' E 153°23'2 4.6
2017-Dec-10 06:00S 27°39' E 153°21'3 5.4
2017-Dec-10 05:30S 27°37' E 153°19'3 5.3
2017-Dec-10 05:00S 27°39' E 153°21'2 3.8
2017-Dec-10 04:30S 27°38' E 153°23'0 0.7
2017-Dec-10 04:00S 27°38' E 153°23'2 4.1
2017-Dec-10 03:30S 27°39' E 153°21'3 5.5
2017-Dec-10 03:00S 27°37' E 153°19'3 5.5
2017-Dec-10 02:30S 27°39' E 153°21'1 2.7
2017-Dec-10 02:00S 27°38' E 153°22'1 1.8
2017-Dec-10 01:30S 27°39' E 153°23'2 3.3
2017-Dec-10 01:00S 27°39' E 153°21'3 5.5
2017-Dec-10 00:30S 27°37' E 153°19'2 4.0
2017-Dec-10 00:00S 27°38' E 153°20'2 3.6
2017-Dec-09 23:30S 27°38' E 153°22'1 1.8
2017-Dec-09 23:00S 27°39' E 153°23'2 3.3
2017-Dec-09 22:30S 27°39' E 153°21'3 5.5
2017-Dec-09 22:00S 27°37' E 153°19'0 0.0
2017-Dec-09 21:30S 27°37' E 153°19'0 0.0
2017-Dec-09 08:38S 27°37' E 153°19'1 4.0
2017-Dec-09 08:30S 27°37' E 153°19'3 6.9
2017-Dec-09 08:00S 27°39' E 153°23'1 1.9
2017-Dec-09 07:30S 27°38' E 153°22'2 4.0
2017-Dec-09 07:00S 27°38' E 153°20'1 2.5
2017-Dec-09 06:30S 27°37' E 153°19'3 6.2
2017-Dec-09 06:00S 27°38' E 153°22'1 2.4
2017-Dec-09 05:30S 27°39' E 153°23'1 2.6
2017-Dec-09 05:00S 27°38' E 153°22'3 5.4
2017-Dec-09 04:30S 27°37' E 153°19'2 3.3
2017-Dec-09 04:00S 27°38' E 153°20'2 3.1
2017-Dec-09 03:30S 27°38' E 153°22'1 2.3
2017-Dec-09 03:00S 27°39' E 153°23'1 2.2
2017-Dec-09 02:30S 27°38' E 153°22'2 4.8
2017-Dec-09 02:00S 27°37' E 153°19'0 0.4
2017-Dec-09 01:30S 27°38' E 153°20'2 4.4
2017-Dec-09 01:00S 27°38' E 153°22'1 2.3
2017-Dec-09 00:30S 27°38' E 153°23'2 4.0
2017-Dec-09 00:00S 27°39' E 153°21'3 5.5
2017-Dec-08 23:30S 27°37' E 153°19'3 5.2
2017-Dec-08 23:00S 27°39' E 153°21'2 3.4
2017-Dec-08 22:30S 27°38' E 153°23'1 1.9
2017-Dec-08 22:00S 27°38' E 153°24'2 3.0
2017-Dec-08 21:30S 27°38' E 153°22'3 5.7
2017-Dec-08 21:00S 27°37' E 153°19'0 0.0
2017-Dec-08 08:26S 27°37' E 153°19'1 2.2
2017-Dec-08 08:00S 27°37' E 153°19'3 6.6
2017-Dec-08 07:30S 27°38' E 153°23'0 1.0
2017-Dec-08 07:00S 27°39' E 153°23'2 3.5
2017-Dec-08 06:30S 27°39' E 153°21'3 5.5
2017-Dec-08 06:00S 27°37' E 153°19'3 5.5
2017-Dec-08 05:30S 27°39' E 153°21'2 3.5
2017-Dec-08 05:00S 27°39' E 153°23'1 2.3
2017-Dec-08 04:30S 27°38' E 153°22'3 5.5
2017-Dec-08 04:00S 27°37' E 153°19'1 2.0
2017-Dec-08 03:30S 27°38' E 153°20'2 3.8
2017-Dec-08 03:00S 27°38' E 153°22'1 2.3
2017-Dec-08 02:30S 27°38' E 153°23'1 1.1
2017-Dec-08 02:00S 27°39' E 153°23'2 3.2
2017-Dec-08 01:30S 27°38' E 153°21'3 5.6
2017-Dec-08 01:00S 27°37' E 153°19'2 3.9
2017-Dec-08 00:30S 27°38' E 153°20'2 5.0
2017-Dec-08 00:00S 27°38' E 153°23'1 1.2
2017-Dec-07 23:30S 27°39' E 153°23'1 2.9
2017-Dec-07 23:00S 27°38' E 153°21'3 5.7
2017-Dec-07 22:30S 27°37' E 153°19'2 3.5
2017-Dec-07 22:00S 27°38' E 153°20'3 5.1
2017-Dec-07 21:30S 27°38' E 153°23'0 0.9
2017-Dec-07 21:00S 27°39' E 153°23'2 4.0
2017-Dec-07 20:30S 27°39' E 153°21'3 5.5
2017-Dec-07 20:00S 27°37' E 153°19'0 0.0
2017-Dec-07 19:30S 27°37' E 153°19'0 0.0
2017-Dec-07 08:55S 27°37' E 153°19'0 0.0
2017-Dec-07 08:30S 27°37' E 153°19'1 1.8
2017-Dec-07 08:00S 27°37' E 153°19'3 6.9
2017-Dec-07 07:30S 27°38' E 153°23'1 1.2
2017-Dec-07 07:00S 27°39' E 153°23'2 3.3
2017-Dec-07 06:30S 27°39' E 153°21'3 5.5
2017-Dec-07 06:00S 27°37' E 153°19'1 3.0
2017-Dec-07 05:30S 27°38' E 153°20'3 5.4
2017-Dec-07 05:00S 27°38' E 153°23'1 1.3
2017-Dec-07 04:30S 27°39' E 153°23'1 2.8
2017-Dec-07 04:00S 27°38' E 153°21'3 5.7
2017-Dec-07 03:30S 27°37' E 153°19'2 3.1
2017-Dec-07 03:00S 27°38' E 153°20'3 5.8
2017-Dec-07 02:30S 27°38' E 153°23'1 1.2
2017-Dec-07 02:00S 27°39' E 153°23'1 2.8
2017-Dec-07 01:30S 27°38' E 153°21'3 5.7
2017-Dec-07 01:00S 27°37' E 153°19'2 3.9
2017-Dec-07 00:30S 27°38' E 153°20'3 5.9
2017-Dec-07 00:00S 27°38' E 153°24'0 0.9
2017-Dec-06 23:30S 27°39' E 153°23'2 3.7
2017-Dec-06 23:00S 27°39' E 153°21'3 5.6
2017-Dec-06 22:30S 27°37' E 153°19'3 5.5
2017-Dec-06 22:00S 27°39' E 153°21'2 4.3
2017-Dec-06 21:30S 27°38' E 153°23'0 0.6
2017-Dec-06 21:00S 27°38' E 153°23'  
Track history (hours):
 
Tides and Currents Weather Stations Pressure Air Temp Water Temp Dewpoint Dewpoint Depression Visibility Wind Speed Wind Dir Waves Ship Positions

Stradbroke Venture

Last reported at 2017-Dec-15 08:25 UTC. Time now 2017-Dec-15 11:55 UTC.
Position S 27°37' E 153°19'.

Length 54 m; draft 1.4 m.

Type: Other ship. MMSI: 503690000.

Date/timePositionNaut miles runAvg speedWind from/ knotsBaromVisibWave heightAir tempDewpointWater temp
2017-Dec-15 08:25S 27°37' E 153°19'2 3.7
2017-Dec-15 08:00S 27°38' E 153°20'2 3.1
2017-Dec-15 07:30S 27°38' E 153°22'1 1.9
2017-Dec-15 07:00S 27°38' E 153°23'2 4.6
2017-Dec-15 06:30S 27°38' E 153°20'2 3.3
2017-Dec-15 06:00S 27°37' E 153°19'2 4.4
2017-Dec-15 05:30S 27°38' E 153°21'3 5.4
2017-Dec-15 05:00S 27°38' E 153°24'0 0.1
2017-Dec-15 04:30S 27°38' E 153°24'3 5.0
2017-Dec-15 04:00S 27°39' E 153°21'2 1.4
2017-Dec-15 02:30S 27°38' E 153°23'4 2.8
2017-Dec-15 01:00S 27°37' E 153°19'2 4.9
2017-Dec-15 00:30S 27°38' E 153°21'2 0.2
2017-Dec-14 08:57S 27°37' E 153°19'0 0.0
2017-Dec-14 08:31S 27°37' E 153°19'1 3.0
2017-Dec-14 08:01S 27°38' E 153°20'2 3.2
2017-Dec-14 07:31S 27°38' E 153°22'2 3.2
2017-Dec-14 07:01S 27°38' E 153°23'2 4.8
2017-Dec-14 06:31S 27°39' E 153°21'2 4.9
2017-Dec-14 06:00S 27°37' E 153°19'2 4.6
2017-Dec-14 05:30S 27°38' E 153°21'3 5.2
2017-Dec-14 05:01S 27°38' E 153°24'0 0.4
2017-Dec-14 04:31S 27°38' E 153°23'3 5.1
2017-Dec-14 04:01S 27°38' E 153°20'2 4.3
2017-Dec-14 03:30S 27°37' E 153°19'3 5.1
2017-Dec-14 03:01S 27°39' E 153°21'2 4.9
2017-Dec-14 02:30S 27°38' E 153°24'0 0.5
2017-Dec-14 02:01S 27°38' E 153°23'3 5.1
2017-Dec-14 01:31S 27°38' E 153°20'2 4.2
2017-Dec-14 01:01S 27°37' E 153°19'2 4.0
2017-Dec-14 00:30S 27°38' E 153°20'2 5.0
2017-Dec-14 00:01S 27°38' E 153°23'0 0.8
2017-Dec-13 23:31S 27°39' E 153°23'2 4.1
2017-Dec-13 23:01S 27°39' E 153°21'3 5.5
2017-Dec-13 22:31S 27°37' E 153°19'2 4.6
2017-Dec-13 22:01S 27°38' E 153°21'2 4.5
2017-Dec-13 21:31S 27°38' E 153°23'0 0.8
2017-Dec-13 21:01S 27°38' E 153°23'2 4.7
2017-Dec-13 20:31S 27°39' E 153°21'3 5.3
2017-Dec-13 20:00S 27°37' E 153°19'0 0.0
2017-Dec-13 08:24S 27°37' E 153°19'1 3.8
2017-Dec-13 08:00S 27°38' E 153°20'3 5.8
2017-Dec-13 07:30S 27°38' E 153°23'0 0.7
2017-Dec-13 07:00S 27°38' E 153°23'2 4.2
2017-Dec-13 06:30S 27°39' E 153°21'3 5.5
2017-Dec-13 06:00S 27°37' E 153°19'2 4.8
2017-Dec-13 05:30S 27°38' E 153°21'3 5.2
2017-Dec-13 05:00S 27°38' E 153°24'0 0.6
2017-Dec-13 04:30S 27°38' E 153°23'2 4.8
2017-Dec-13 04:00S 27°38' E 153°21'2 4.4
2017-Dec-13 03:31S 27°37' E 153°19'3 5.6
2017-Dec-13 03:00S 27°39' E 153°21'2 4.0
2017-Dec-13 02:30S 27°38' E 153°23'1 1.7
2017-Dec-13 02:00S 27°38' E 153°23'2 4.3
2017-Dec-13 01:30S 27°38' E 153°20'2 3.4
2017-Dec-13 01:00S 27°37' E 153°19'3 5.6
2017-Dec-13 00:30S 27°39' E 153°21'2 3.5
2017-Dec-13 00:00S 27°39' E 153°23'0 0.7
2017-Dec-12 23:30S 27°38' E 153°24'2 4.8
2017-Dec-12 23:00S 27°39' E 153°21'3 5.3
2017-Dec-12 22:30S 27°37' E 153°19'2 4.1
2017-Dec-12 22:00S 27°38' E 153°20'2 4.7
2017-Dec-12 21:30S 27°38' E 153°23'0 0.8
2017-Dec-12 21:00S 27°38' E 153°23'2 4.0
2017-Dec-12 20:30S 27°39' E 153°21'3 5.6
2017-Dec-12 20:01S 27°37' E 153°19'0 0.0
2017-Dec-12 19:30S 27°37' E 153°19'0 0.0
2017-Dec-12 08:36S 27°37' E 153°19'0 0.0
2017-Dec-12 08:30S 27°37' E 153°19'3 5.1
2017-Dec-12 08:00S 27°39' E 153°21'2 4.3
2017-Dec-12 07:30S 27°38' E 153°23'0 0.9
2017-Dec-12 07:00S 27°38' E 153°24'3 5.1
2017-Dec-12 06:30S 27°39' E 153°21'3 5.2
2017-Dec-12 06:00S 27°37' E 153°19'3 5.6
2017-Dec-12 05:30S 27°38' E 153°21'2 3.6
2017-Dec-12 05:00S 27°38' E 153°23'0 0.0
2017-Dec-12 04:30S 27°38' E 153°23'2 4.5
2017-Dec-12 04:00S 27°39' E 153°21'2 4.9
2017-Dec-12 03:30S 27°37' E 153°19'3 5.3
2017-Dec-12 03:00S 27°39' E 153°21'2 4.7
2017-Dec-12 02:30S 27°38' E 153°23'0 0.4
2017-Dec-12 02:00S 27°38' E 153°23'2 4.5
2017-Dec-12 01:30S 27°39' E 153°21'3 5.5
2017-Dec-12 01:00S 27°37' E 153°19'2 4.6
2017-Dec-12 00:30S 27°38' E 153°21'2 4.4
2017-Dec-12 00:00S 27°38' E 153°23'0 0.8
2017-Dec-11 23:30S 27°38' E 153°23'2 4.3
2017-Dec-11 23:00S 27°39' E 153°21'3 5.4
2017-Dec-11 22:30S 27°37' E 153°19'2 4.7
2017-Dec-11 22:00S 27°38' E 153°21'2 4.8
2017-Dec-11 21:30S 27°38' E 153°23'0 0.5
2017-Dec-11 21:00S 27°38' E 153°24'3 5.1
2017-Dec-11 20:30S 27°39' E 153°21'2 4.9
2017-Dec-11 20:00S 27°37' E 153°19'0 0.0
2017-Dec-11 19:30S 27°37' E 153°19'0 0.0
2017-Dec-11 08:26S 27°37' E 153°19'1 2.3
2017-Dec-11 08:00S 27°37' E 153°19'3 6.5
2017-Dec-11 07:30S 27°38' E 153°23'0 0.7
2017-Dec-11 07:00S 27°38' E 153°23'3 5.0
2017-Dec-11 06:30S 27°38' E 153°21'2 4.8
2017-Dec-11 06:00S 27°37' E 153°19'2 4.6
2017-Dec-11 05:30S 27°38' E 153°21'2 4.4
2017-Dec-11 05:00S 27°38' E 153°23'0 0.8
2017-Dec-11 04:30S 27°38' E 153°23'2 4.0
2017-Dec-11 04:00S 27°39' E 153°21'3 5.5
2017-Dec-11 03:30S 27°37' E 153°19'2 3.9
2017-Dec-11 03:00S 27°38' E 153°20'3 5.1
2017-Dec-11 02:30S 27°38' E 153°23'0 0.8
2017-Dec-11 02:00S 27°38' E 153°23'2 4.5
2017-Dec-11 01:30S 27°38' E 153°20'2 3.7
2017-Dec-11 01:00S 27°37' E 153°19'3 5.8
2017-Dec-11 00:30S 27°38' E 153°22'1 2.7
2017-Dec-11 00:00S 27°39' E 153°23'1 1.2
2017-Dec-10 23:30S 27°38' E 153°23'2 4.5
2017-Dec-10 23:00S 27°38' E 153°20'2 4.0
2017-Dec-10 22:30S 27°37' E 153°19'3 5.6
2017-Dec-10 22:00S 27°39' E 153°21'2 4.2
2017-Dec-10 21:30S 27°38' E 153°23'1 1.2
2017-Dec-10 21:00S 27°39' E 153°23'2 3.3
2017-Dec-10 20:30S 27°39' E 153°21'3 5.6
2017-Dec-10 20:00S 27°37' E 153°19'0 0.0
2017-Dec-10 08:03S 27°37' E 153°19'0 0.0
2017-Dec-10 08:00S 27°37' E 153°19'2 3.5
2017-Dec-10 07:30S 27°38' E 153°20'2 3.9
2017-Dec-10 07:00S 27°38' E 153°22'1 1.9
2017-Dec-10 06:30S 27°38' E 153°23'2 4.6
2017-Dec-10 06:00S 27°39' E 153°21'3 5.4
2017-Dec-10 05:30S 27°37' E 153°19'3 5.3
2017-Dec-10 05:00S 27°39' E 153°21'2 3.8
2017-Dec-10 04:30S 27°38' E 153°23'0 0.7
2017-Dec-10 04:00S 27°38' E 153°23'2 4.1
2017-Dec-10 03:30S 27°39' E 153°21'3 5.5
2017-Dec-10 03:00S 27°37' E 153°19'3 5.5
2017-Dec-10 02:30S 27°39' E 153°21'1 2.7
2017-Dec-10 02:00S 27°38' E 153°22'1 1.8
2017-Dec-10 01:30S 27°39' E 153°23'2 3.3
2017-Dec-10 01:00S 27°39' E 153°21'3 5.5
2017-Dec-10 00:30S 27°37' E 153°19'2 4.0
2017-Dec-10 00:00S 27°38' E 153°20'2 3.6
2017-Dec-09 23:30S 27°38' E 153°22'1 1.8
2017-Dec-09 23:00S 27°39' E 153°23'2 3.3
2017-Dec-09 22:30S 27°39' E 153°21'3 5.5
2017-Dec-09 22:00S 27°37' E 153°19'0 0.0
2017-Dec-09 21:30S 27°37' E 153°19'0 0.0
2017-Dec-09 08:38S 27°37' E 153°19'1 4.0
2017-Dec-09 08:30S 27°37' E 153°19'3 6.9
2017-Dec-09 08:00S 27°39' E 153°23'1 1.9
2017-Dec-09 07:30S 27°38' E 153°22'2 4.0
2017-Dec-09 07:00S 27°38' E 153°20'1 2.5
2017-Dec-09 06:30S 27°37' E 153°19'3 6.2
2017-Dec-09 06:00S 27°38' E 153°22'1 2.4
2017-Dec-09 05:30S 27°39' E 153°23'1 2.6
2017-Dec-09 05:00S 27°38' E 153°22'3 5.4
2017-Dec-09 04:30S 27°37' E 153°19'2 3.3
2017-Dec-09 04:00S 27°38' E 153°20'2 3.1
2017-Dec-09 03:30S 27°38' E 153°22'1 2.3
2017-Dec-09 03:00S 27°39' E 153°23'1 2.2
2017-Dec-09 02:30S 27°38' E 153°22'2 4.8
2017-Dec-09 02:00S 27°37' E 153°19'0 0.4
2017-Dec-09 01:30S 27°38' E 153°20'2 4.4
2017-Dec-09 01:00S 27°38' E 153°22'1 2.3
2017-Dec-09 00:30S 27°38' E 153°23'2 4.0
2017-Dec-09 00:00S 27°39' E 153°21'3 5.5
2017-Dec-08 23:30S 27°37' E 153°19'3 5.2
2017-Dec-08 23:00S 27°39' E 153°21'2 3.4
2017-Dec-08 22:30S 27°38' E 153°23'1 1.9
2017-Dec-08 22:00S 27°38' E 153°24'2 3.0
2017-Dec-08 21:30S 27°38' E 153°22'3 5.7
2017-Dec-08 21:00S 27°37' E 153°19'0 0.0
2017-Dec-08 08:26S 27°37' E 153°19'1 2.2
2017-Dec-08 08:00S 27°37' E 153°19'3 6.6
2017-Dec-08 07:30S 27°38' E 153°23'0 1.0
2017-Dec-08 07:00S 27°39' E 153°23'2 3.5
2017-Dec-08 06:30S 27°39' E 153°21'3 5.5
2017-Dec-08 06:00S 27°37' E 153°19'3 5.5
2017-Dec-08 05:30S 27°39' E 153°21'2 3.5
2017-Dec-08 05:00S 27°39' E 153°23'1 2.3
2017-Dec-08 04:30S 27°38' E 153°22'3 5.5
2017-Dec-08 04:00S 27°37' E 153°19'1 2.0
2017-Dec-08 03:30S 27°38' E 153°20'2 3.8
2017-Dec-08 03:00S 27°38' E 153°22'1 2.3
2017-Dec-08 02:30S 27°38' E 153°23'1 1.1
2017-Dec-08 02:00S 27°39' E 153°23'2 3.2
2017-Dec-08 01:30S 27°38' E 153°21'3 5.6
2017-Dec-08 01:00S 27°37' E 153°19'2 3.9
2017-Dec-08 00:30S 27°38' E 153°20'2 5.0
2017-Dec-08 00:00S 27°38' E 153°23'1 1.2
2017-Dec-07 23:30S 27°39' E 153°23'1 2.9
2017-Dec-07 23:00S 27°38' E 153°21'3 5.7
2017-Dec-07 22:30S 27°37' E 153°19'2 3.5
2017-Dec-07 22:00S 27°38' E 153°20'3 5.1
2017-Dec-07 21:30S 27°38' E 153°23'0 0.9
2017-Dec-07 21:00S 27°39' E 153°23'2 4.0
2017-Dec-07 20:30S 27°39' E 153°21'3 5.5
2017-Dec-07 20:00S 27°37' E 153°19'0 0.0
2017-Dec-07 19:30S 27°37' E 153°19'0 0.0
2017-Dec-07 08:55S 27°37' E 153°19'0 0.0
2017-Dec-07 08:30S 27°37' E 153°19'1 1.8
2017-Dec-07 08:00S 27°37' E 153°19'3 6.9
2017-Dec-07 07:30S 27°38' E 153°23'1 1.2
2017-Dec-07 07:00S 27°39' E 153°23'2 3.3
2017-Dec-07 06:30S 27°39' E 153°21'3 5.5
2017-Dec-07 06:00S 27°37' E 153°19'1 3.0
2017-Dec-07 05:30S 27°38' E 153°20'3 5.4
2017-Dec-07 05:00S 27°38' E 153°23'1 1.3
2017-Dec-07 04:30S 27°39' E 153°23'1 2.8
2017-Dec-07 04:00S 27°38' E 153°21'3 5.7
2017-Dec-07 03:30S 27°37' E 153°19'2 3.1
2017-Dec-07 03:00S 27°38' E 153°20'3 5.8
2017-Dec-07 02:30S 27°38' E 153°23'1 1.2
2017-Dec-07 02:00S 27°39' E 153°23'1 2.8
2017-Dec-07 01:30S 27°38' E 153°21'3 5.7
2017-Dec-07 01:00S 27°37' E 153°19'2 3.9
2017-Dec-07 00:30S 27°38' E 153°20'3 5.9
2017-Dec-07 00:00S 27°38' E 153°24'0 0.9
2017-Dec-06 23:30S 27°39' E 153°23'2 3.7
2017-Dec-06 23:00S 27°39' E 153°21'3 5.6
2017-Dec-06 22:30S 27°37' E 153°19'3 5.5
2017-Dec-06 22:00S 27°39' E 153°21'2 4.3
2017-Dec-06 21:30S 27°38' E 153°23'0 0.6
2017-Dec-06 21:00S 27°38' E 153°23'  

Dump ship's entire track history